Time;durP1;ratioP1;P1;durP2;ratioP2;P2;SDS_P1;SDS_P2;PMS_P1;PMS_P2;Temp;Humidity;BMP_temperature;BMP_pressure;BME280_temperature;BME280_humidity;BME280_pressure;Samples;Min_cycle;Max_cycle;Signal;HPM_P1;HPM_P2
2022/10/14 00:02:08;;;;;;;4.70;2.27;;;;;;;13.39;100.00;99826.69;5110929;28;20194;-62
2022/10/14 00:04:34;;;;;;;3.37;2.83;;;;;;;13.34;100.00;99822.53;5110788;28;20198;-62
2022/10/14 00:07:01;;;;;;;2.63;2.40;;;;;;;13.35;100.00;99824.22;5111109;28;20214;-62
2022/10/14 00:09:29;;;;;;;2.53;2.13;;;;;;;13.33;100.00;99815.59;5110492;28;20195;-62
2022/10/14 00:11:56;;;;;;;3.93;2.20;;;;;;;13.40;100.00;99824.94;5110836;28;20198;-63
2022/10/14 00:14:23;;;;;;;4.13;2.30;;;;;;;13.34;100.00;99825.13;5110719;28;20241;-54
2022/10/14 00:16:54;;;;;;;2.30;1.87;;;;;;;13.30;100.00;99816.59;5109458;28;20226;-54
2022/10/14 00:19:21;;;;;;;5.63;2.30;;;;;;;13.29;100.00;99817.50;5110130;28;20229;-54
2022/10/14 00:21:48;;;;;;;3.87;2.20;;;;;;;13.24;100.00;99810.72;5110132;28;20477;-57
2022/10/14 00:24:16;;;;;;;2.70;2.50;;;;;;;13.22;100.00;99812.53;5110297;28;20201;-55
2022/10/14 00:26:45;;;;;;;3.73;2.33;;;;;;;13.21;100.00;99813.44;5110041;28;20199;-56
2022/10/14 00:29:14;;;;;;;7.23;2.80;;;;;;;13.25;100.00;99818.50;5110256;28;20282;-62
2022/10/14 00:31:40;;;;;;;4.03;2.50;;;;;;;13.22;100.00;99812.53;5110045;28;20191;-64
2022/10/14 00:34:11;;;;;;;2.60;2.23;;;;;;;13.23;100.00;99809.00;5109950;28;20281;-63
2022/10/14 00:36:39;;;;;;;4.60;2.30;;;;;;;13.24;100.00;99811.56;5110271;28;20663;-63
2022/10/14 00:39:06;;;;;;;5.33;2.30;;;;;;;13.20;100.00;99809.16;5110276;28;20222;-63
2022/10/14 00:41:35;;;;;;;5.30;2.67;;;;;;;13.19;100.00;99807.44;5109851;28;20219;-63
2022/10/14 00:44:06;;;;;;;6.60;2.10;;;;;;;13.23;100.00;99799.44;5110025;28;20217;-63
2022/10/14 00:46:35;;;;;;;4.17;2.47;;;;;;;13.26;100.00;99814.13;5109738;28;20202;-63
2022/10/14 00:49:07;;;;;;;4.37;2.50;;;;;;;13.33;100.00;99806.03;5110142;28;20571;-63
2022/10/14 00:51:36;;;;;;;3.23;2.13;;;;;;;13.19;100.00;99792.66;5110044;28;20639;-62
2022/10/14 00:54:04;;;;;;;2.60;2.40;;;;;;;13.16;100.00;99803.19;5109800;28;20209;-63
2022/10/14 00:56:31;;;;;;;4.80;2.37;;;;;;;13.14;100.00;99804.97;5109591;28;20204;-62
2022/10/14 00:59:02;;;;;;;2.30;2.20;;;;;;;13.08;100.00;99806.03;5109710;28;20232;-63
2022/10/14 01:01:31;;;;;;;3.47;2.20;;;;;;;13.13;100.00;99811.06;5109661;28;20197;-63
2022/10/14 01:03:58;;;;;;;3.43;2.20;;;;;;;13.10;100.00;99806.78;5109713;28;20241;-63
2022/10/14 01:06:41;;;;;;;2.47;2.27;;;;;;;13.16;100.00;99815.34;5109837;28;20217;-63
2022/10/14 01:09:17;;;;;;;4.90;2.00;;;;;;;13.20;100.00;99806.53;5109785;28;20309;-55
2022/10/14 01:11:53;;;;;;;2.93;2.10;;;;;;;13.16;100.00;99804.94;5109379;28;20197;-54
2022/10/14 01:14:30;;;;;;;2.27;2.07;;;;;;;13.16;100.00;99805.78;5109495;28;20194;-55
2022/10/14 01:17:06;;;;;;;3.10;2.47;;;;;;;13.04;100.00;99786.19;5109545;28;20287;-63
2022/10/14 01:19:52;;;;;;;5.83;2.83;;;;;;;13.24;100.00;99805.50;5109359;28;20222;-63
2022/10/14 01:22:26;;;;;;;5.13;2.33;;;;;;;13.34;100.00;99801.66;5109838;28;20195;-63
2022/10/14 01:25:10;;;;;;;3.43;2.43;;;;;;;13.38;100.00;99803.28;5109795;28;20195;-62
2022/10/14 01:27:55;;;;;;;3.50;2.50;;;;;;;13.41;100.00;99790.13;5109583;28;20584;-62
2022/10/14 01:30:25;;;;;;;6.00;2.33;;;;;;;13.37;100.00;99788.53;5109383;28;20196;-63
2022/10/14 01:33:10;;;;;;;3.67;2.27;;;;;;;13.37;100.00;99783.31;5109336;28;20205;-63
2022/10/14 01:35:57;;;;;;;2.53;2.33;;;;;;;13.39;100.00;99789.34;5109321;28;20198;-63
2022/10/14 01:38:30;;;;;;;5.57;2.63;;;;;;;13.33;100.00;99784.31;5110631;28;20205;-64
2022/10/14 01:41:02;;;;;;;4.27;2.63;;;;;;;13.40;100.00;99778.00;5113561;28;20206;-63
2022/10/14 01:43:32;;;;;;;3.03;2.83;;;;;;;13.38;100.00;99777.19;5113256;28;20198;-63
2022/10/14 01:46:04;;;;;;;3.30;2.80;;;;;;;13.29;100.00;99759.28;5113511;28;20195;-63
2022/10/14 01:48:35;;;;;;;7.20;2.83;;;;;;;13.24;100.00;99749.00;5113214;28;20191;-63
2022/10/14 01:51:08;;;;;;;5.87;3.20;;;;;;;13.45;100.00;99771.69;5113296;28;20198;-63
2022/10/14 01:53:40;;;;;;;5.13;2.70;;;;;;;13.46;100.00;99769.94;5113138;28;20195;-63
2022/10/14 01:56:09;;;;;;;2.83;2.63;;;;;;;13.41;100.00;99767.53;5113252;28;20201;-63
2022/10/14 01:58:37;;;;;;;2.90;2.70;;;;;;;13.44;100.00;99770.00;5113424;28;20198;-64
2022/10/14 02:01:08;;;;;;;4.33;2.57;;;;;;;13.44;100.00;99770.00;5113141;28;20211;-63
2022/10/14 02:03:43;;;;;;;3.20;2.57;;;;;;;13.37;100.00;99771.13;5112908;28;20563;-63
2022/10/14 02:06:15;;;;;;;3.23;2.40;;;;;;;13.42;100.00;99770.97;5113135;28;20194;-63
2022/10/14 02:08:54;;;;;;;2.20;2.10;;;;;;;13.40;100.00;99771.03;5113169;28;20690;-63
2022/10/14 02:11:22;;;;;;;2.70;2.50;;;;;;;13.35;100.00;99770.34;5113191;28;20588;-63
2022/10/14 02:14:05;;;;;;;2.50;2.23;;;;;;;13.41;100.00;99777.09;5112706;28;20203;-63
2022/10/14 02:16:39;;;;;;;3.97;2.00;;;;;;;13.48;100.00;99762.91;5112742;28;20612;-54
2022/10/14 02:19:17;;;;;;;2.57;2.00;;;;;;;13.39;100.00;99748.47;5112846;28;20233;-63
2022/10/14 02:21:48;;;;;;;1.90;1.80;;;;;;;13.48;100.00;99762.06;5112731;28;20190;-64
2022/10/14 02:24:20;;;;;;;3.40;2.07;;;;;;;13.45;100.00;99763.03;5112851;28;20201;-63
2022/10/14 02:26:49;;;;;;;1.80;1.70;;;;;;;13.45;100.00;99757.81;5113094;28;20190;-64
2022/10/14 02:29:19;;;;;;;2.97;2.00;;;;;;;13.53;100.00;99766.22;5113023;28;20186;-64
2022/10/14 02:31:48;;;;;;;5.80;1.80;;;;;;;13.50;100.00;99758.50;5112583;28;20236;-64
2022/10/14 02:34:19;;;;;;;4.57;1.90;;;;;;;13.58;100.00;99747.78;5112646;28;20195;-64
2022/10/14 02:36:47;;;;;;;3.30;2.43;;;;;;;13.71;100.00;99762.91;5112427;28;20201;-64
2022/10/14 02:39:19;;;;;;;2.67;1.97;;;;;;;13.70;100.00;99765.59;5112607;28;20218;-64
2022/10/14 02:41:51;;;;;;;2.17;1.97;;;;;;;13.68;100.00;99765.63;5112374;28;20287;-64
2022/10/14 02:44:19;;;;;;;3.03;2.47;;;;;;;13.75;100.00;99764.50;5112503;28;20190;-64
2022/10/14 02:46:48;;;;;;;8.80;2.40;;;;;;;13.80;100.00;99759.09;5112230;28;20232;-63
2022/10/14 02:49:16;;;;;;;3.10;2.13;;;;;;;13.77;100.00;99754.84;5111927;28;20194;-63
2022/10/14 02:51:42;;;;;;;2.60;2.40;;;;;;;13.74;100.00;99760.19;5112005;28;20195;-63
2022/10/14 02:54:09;;;;;;;3.07;2.13;;;;;;;13.79;100.00;99758.25;5112224;28;20195;-63
2022/10/14 02:56:36;;;;;;;4.70;2.40;;;;;;;13.82;100.00;99757.28;5112429;28;20203;-63
2022/10/14 02:59:03;;;;;;;2.10;1.90;;;;;;;13.81;100.00;99759.06;5112032;28;20219;-63
2022/10/14 03:01:30;;;;;;;2.43;2.30;;;;;;;13.83;100.00;99753.78;5111897;28;20190;-54
2022/10/14 03:03:58;;;;;;;2.53;2.33;;;;;;;13.82;100.00;99758.16;5110928;28;20230;-54
2022/10/14 03:06:25;;;;;;;3.30;2.07;;;;;;;13.84;100.00;99763.31;5111268;28;20286;-54
2022/10/14 03:08:52;;;;;;;2.70;2.50;;;;;;;13.86;100.00;99760.66;5111972;28;20582;-54
2022/10/14 03:11:19;;;;;;;4.20;2.40;;;;;;;13.77;100.00;99754.00;5091899;28;20203;-54
2022/10/14 03:13:46;;;;;;;3.07;2.40;;;;;;;13.84;100.00;99744.19;5091209;28;20199;-54
2022/10/14 03:16:13;;;;;;;5.17;2.37;;;;;;;13.87;100.00;99749.31;5090206;28;20707;-55
2022/10/14 03:18:40;;;;;;;4.33;2.73;;;;;;;13.75;100.00;99748.88;5090611;28;20219;-54
2022/10/14 03:21:08;;;;;;;6.70;2.67;;;;;;;13.80;100.00;99748.66;5090353;28;20237;-54
2022/10/14 03:23:35;;;;;;;4.27;2.40;;;;;;;13.76;100.00;99737.53;5106445;28;20222;-54
2022/10/14 03:26:02;;;;;;;5.83;3.10;;;;;;;13.76;100.00;99734.91;5110853;28;20702;-54
2022/10/14 03:28:29;;;;;;;3.80;2.70;;;;;;;13.75;100.00;99741.03;5110392;28;20732;-54
2022/10/14 03:30:56;;;;;;;5.17;3.50;;;;;;;13.79;100.00;99733.91;5110805;28;20580;-55
2022/10/14 03:33:23;;;;;;;3.30;3.07;;;;;;;13.73;100.00;99727.19;5110668;28;20632;-55
2022/10/14 03:35:49;;;;;;;6.00;3.90;;;;;;;13.69;100.00;99736.03;5110542;28;20225;-54
2022/10/14 03:38:18;;;;;;;3.23;2.90;;;;;;;13.60;100.00;99719.88;5109574;28;20229;-55
2022/10/14 03:40:45;;;;;;;2.70;2.50;;;;;;;13.78;100.00;99725.25;5110591;28;20317;-55
2022/10/14 03:43:11;;;;;;;3.67;3.10;;;;;;;13.82;100.00;99721.63;5109714;28;20297;-55
2022/10/14 03:45:38;;;;;;;7.20;3.23;;;;;;;13.79;100.00;99721.72;5110527;28;20223;-55
2022/10/14 03:48:06;;;;;;;5.83;3.00;;;;;;;13.73;100.00;99721.97;5110531;28;20233;-54
2022/10/14 03:50:32;;;;;;;7.10;2.93;;;;;;;13.72;100.00;99720.28;5110591;28;20301;-54
2022/10/14 03:52:59;;;;;;;4.67;3.87;;;;;;;13.74;100.00;99723.69;5110386;28;20225;-55
2022/10/14 03:55:28;;;;;;;4.40;4.00;;;;;;;13.74;100.00;99723.69;5109087;28;20305;-56
2022/10/14 03:57:55;;;;;;;3.60;3.30;;;;;;;13.73;100.00;99719.38;5108561;27;20342;-55
2022/10/14 04:00:22;;;;;;;5.80;3.50;;;;;;;13.76;100.00;99721.88;5108380;28;20221;-56
2022/10/14 04:02:49;;;;;;;3.43;3.23;;;;;;;13.73;100.00;99732.41;5108210;28;20197;-55
2022/10/14 04:05:16;;;;;;;3.17;2.97;;;;;;;13.72;100.00;99725.50;5108292;28;20305;-56
2022/10/14 04:07:43;;;;;;;6.33;3.10;;;;;;;13.68;100.00;99723.91;5105521;28;20195;-56
2022/10/14 04:10:10;;;;;;;6.07;3.10;;;;;;;13.71;100.00;99726.41;5104557;28;20277;-57
2022/10/14 04:12:39;;;;;;;5.57;3.30;;;;;;;13.74;100.00;99713.25;5105665;28;20195;-57
2022/10/14 04:15:07;;;;;;;21.17;3.47;;;;;;;13.73;100.00;99727.19;5109167;28;20213;-55
2022/10/14 04:17:33;;;;;;;14.30;4.03;;;;;;;13.75;100.00;99717.56;5109721;28;20233;-55
2022/10/14 04:20:00;;;;;;;6.70;4.07;;;;;;;13.76;100.00;99716.66;5102668;28;20233;-55
2022/10/14 04:22:28;;;;;;;7.60;3.67;;;;;;;13.73;100.00;99721.13;5108311;28;20214;-56
2022/10/14 04:24:55;;;;;;;8.63;3.67;;;;;;;13.70;100.00;99719.47;5110164;28;20229;-63
2022/10/14 04:27:22;;;;;;;8.63;3.97;;;;;;;13.71;100.00;99715.97;5109923;28;20225;-64
2022/10/14 04:29:51;;;;;;;8.63;5.90;;;;;;;13.72;100.00;99720.28;5109237;28;20214;-53
2022/10/14 04:32:18;;;;;;;7.20;5.43;;;;;;;13.75;100.00;99717.56;5109673;28;20229;-52
2022/10/14 04:34:45;;;;;;;10.03;5.23;;;;;;;13.80;100.00;99717.34;5109086;28;20623;-53
2022/10/14 04:37:12;;;;;;;5.00;4.50;;;;;;;13.79;100.00;99719.13;5109473;28;20219;-57
2022/10/14 04:39:39;;;;;;;6.90;6.07;;;;;;;13.81;100.00;99719.91;5110648;28;20230;-57
2022/10/14 04:42:06;;;;;;;6.20;4.83;;;;;;;13.85;100.00;99711.97;5106046;28;20222;-55
2022/10/14 04:44:33;;;;;;;7.67;5.10;;;;;;;13.83;100.00;99725.09;5108209;28;20211;-63
2022/10/14 04:47:01;;;;;;;5.90;3.93;;;;;;;13.89;100.00;99722.22;5108983;28;20234;-62
2022/10/14 04:49:28;;;;;;;9.00;4.20;;;;;;;13.86;100.00;99719.75;5108903;28;20598;-63
2022/10/14 04:51:55;;;;;;;5.07;3.50;;;;;;;13.96;100.00;99722.84;5108622;28;20232;-63
2022/10/14 04:54:22;;;;;;;10.43;3.50;;;;;;;14.04;100.00;99723.38;5108755;28;20272;-63
2022/10/14 04:56:49;;;;;;;9.03;3.80;;;;;;;14.04;100.00;99726.00;5109104;28;20229;-63
2022/10/14 04:59:16;;;;;;;7.33;4.30;;;;;;;14.08;100.00;99727.59;5108978;28;20321;-62
2022/10/14 05:01:43;;;;;;;12.17;5.00;;;;;;;14.06;100.00;99708.53;5109298;28;20232;-64
2022/10/14 05:04:11;;;;;;;10.47;5.40;;;;;;;14.23;100.00;99726.09;5108558;28;20228;-54
2022/10/14 05:06:38;;;;;;;8.33;4.23;;;;;;;14.22;100.00;99730.47;5109062;28;20601;-63
2022/10/14 05:09:05;;;;;;;9.10;3.90;;;;;;;14.27;100.00;99728.53;5108759;28;20306;-60
2022/10/14 05:11:32;;;;;;;8.70;4.53;;;;;;;14.38;100.00;99723.72;5109445;28;20664;-63
2022/10/14 05:14:00;;;;;;;7.67;3.60;;;;;;;14.47;100.00;99719.91;5108948;28;20218;-63
2022/10/14 05:16:27;;;;;;;9.47;5.03;;;;;;;14.65;100.00;99713.09;5108974;28;20264;-55
2022/10/14 05:18:54;;;;;;;14.53;4.00;;;;;;;14.78;100.00;99714.28;5108603;28;20224;-54
2022/10/14 05:21:22;;;;;;;8.13;4.20;;;;;;;14.80;100.00;99723.72;5108750;28;20662;-55
2022/10/14 05:23:49;;;;;;;10.43;4.53;;;;;;;14.94;100.00;99717.06;5108763;28;20254;-55
2022/10/14 05:26:16;;;;;;;15.17;4.70;;;;;;;15.02;100.00;99714.94;5108794;28;20300;-62
2022/10/14 05:28:43;;;;;;;14.77;5.00;;;;;;;15.18;99.71;99719.44;5108962;28;20236;-63
2022/10/14 05:31:10;;;;;;;21.37;6.67;;;;;;;15.35;97.29;99716.06;5108738;28;20579;-63
2022/10/14 05:33:37;;;;;;;17.60;7.13;;;;;;;15.37;97.58;99727.31;5108277;28;20608;-63
2022/10/14 05:36:05;;;;;;;21.17;6.80;;;;;;;15.43;96.41;99724.44;5108782;28;20222;-63
2022/10/14 05:38:33;;;;;;;12.77;6.07;;;;;;;15.75;94.62;99730.84;5108697;28;20272;-64
2022/10/14 05:41:00;;;;;;;17.97;7.10;;;;;;;16.49;91.25;99725.53;5108769;28;20229;-63
2022/10/14 05:43:27;;;;;;;22.87;6.90;;;;;;;17.47;84.06;99737.97;5108892;28;20226;-55
2022/10/14 05:45:54;;;;;;;20.80;7.47;;;;;;;18.32;77.15;99730.59;5107971;28;20201;-55
2022/10/14 05:48:21;;;;;;;30.10;7.70;;;;;;;19.05;72.87;99731.59;5109002;28;20675;-57
2022/10/14 05:50:48;;;;;;;19.13;7.35;;;;;;;19.49;70.28;99739.44;5108918;28;20282;-54
2022/10/14 05:53:15;;;;;;;26.90;6.47;;;;;;;20.10;66.91;99735.56;5109456;28;20622;-56
2022/10/14 05:55:43;;;;;;;24.30;7.95;;;;;;;20.75;63.30;99743.63;5109055;28;20290;-55
2022/10/14 05:58:11;;;;;;;20.58;5.75;;;;;;;20.84;62.22;99744.78;5109290;28;20191;-64
2022/10/14 06:00:38;;;;;;;14.55;5.95;;;;;;;20.87;61.43;99750.72;5108879;28;20279;-65
2022/10/14 06:03:06;;;;;;;13.05;4.72;;;;;;;20.90;61.70;99750.47;5109089;28;20255;-64
2022/10/14 06:05:37;;;;;;;11.30;5.13;;;;;;;21.31;59.39;99750.34;5108818;28;20582;-64
2022/10/14 06:08:05;;;;;;;16.90;4.57;;;;;;;21.54;58.10;99756.66;5108893;28;20201;-64
2022/10/14 06:10:33;;;;;;;13.23;5.40;;;;;;;22.07;56.84;99747.59;5108975;28;20206;-64
2022/10/14 06:13:02;;;;;;;14.70;5.97;;;;;;;22.82;53.90;99752.63;5109077;28;20195;-56
2022/10/14 06:15:29;;;;;;;10.07;4.53;;;;;;;23.52;51.39;99742.78;5109027;28;20248;-55
2022/10/14 06:17:57;;;;;;;9.02;4.20;;;;;;;24.19;49.09;99758.59;5108599;28;20234;-55
2022/10/14 06:20:25;;;;;;;15.77;4.50;;;;;;;23.87;49.57;99758.53;5108411;28;20226;-54
2022/10/14 06:22:53;;;;;;;7.70;4.50;;;;;;;23.06;51.71;99755.22;5108632;28;20202;-54
2022/10/14 06:25:21;;;;;;;10.32;4.18;;;;;;;22.75;52.67;99746.97;5111613;28;20564;-54
2022/10/14 06:27:49;;;;;;;6.57;3.30;;;;;;;21.85;55.16;99734.19;5112434;28;20666;-53
2022/10/14 06:30:19;;;;;;;5.65;3.38;;;;;;;20.84;58.62;99750.91;5112532;28;20881;-53
2022/10/14 06:32:46;;;;;;;3.70;3.50;;;;;;;20.57;60.37;99750.09;5112267;28;20194;-53
2022/10/14 06:35:15;;;;;;;19.50;13.77;;;;;;;20.35;61.84;99753.31;5112459;28;20202;-54
2022/10/14 06:37:46;;;;;;;16.52;7.45;;;;;;;20.15;62.57;99753.72;5112275;28;20252;-53
2022/10/14 06:40:14;;;;;;;13.52;10.30;;;;;;;20.11;63.30;99760.97;5112214;28;20218;-54
2022/10/14 06:42:42;;;;;;;10.15;9.05;;;;;;;19.74;64.94;99759.00;5112821;28;20206;-60
2022/10/14 06:45:11;;;;;;;6.97;5.28;;;;;;;19.54;66.11;99760.22;5112907;28;20195;-59
2022/10/14 06:47:39;;;;;;;11.98;10.77;;;;;;;19.03;68.27;99736.09;5112085;28;20203;-59
2022/10/14 06:50:08;;;;;;;15.70;14.15;;;;;;;18.93;69.79;99760.41;5112113;28;20210;-59
2022/10/14 06:52:36;;;;;;;9.30;5.95;;;;;;;18.77;70.88;99748.16;5112098;28;20286;-60
2022/10/14 06:55:04;;;;;;;6.65;4.22;;;;;;;18.62;71.25;99751.69;5112103;28;20674;-53
2022/10/14 06:57:31;;;;;;;5.50;4.72;;;;;;;18.32;72.63;99751.63;5111753;28;20198;-53
2022/10/14 06:59:59;;;;;;;6.07;4.10;;;;;;;18.19;73.87;99763.75;5111747;28;20234;-53
2022/10/14 07:02:28;;;;;;;4.07;3.50;;;;;;;18.13;74.28;99759.72;5112074;28;21254;-56
2022/10/14 07:04:57;;;;;;;9.25;5.35;;;;;;;18.26;74.22;99766.91;5111641;28;20199;-53
2022/10/14 07:07:26;;;;;;;3.08;2.88;;;;;;;18.31;73.52;99744.66;5111763;28;20598;-60
2022/10/14 07:09:54;;;;;;;9.48;4.53;;;;;;;18.70;72.36;99749.47;5111593;28;20206;-60
2022/10/14 07:12:25;;;;;;;3.58;3.10;;;;;;;18.75;71.60;99755.28;5111671;28;20199;-54
2022/10/14 07:14:53;;;;;;;4.97;2.80;;;;;;;18.30;72.75;99755.28;5111525;28;20194;-54
2022/10/14 07:17:21;;;;;;;3.15;2.95;;;;;;;18.26;73.83;99759.03;5110456;28;20305;-53
2022/10/14 07:19:49;;;;;;;3.00;2.42;;;;;;;18.32;73.56;99764.75;5111372;28;20190;-54
2022/10/14 07:22:19;;;;;;;8.02;7.22;;;;;;;18.31;73.94;99757.81;5111669;28;20303;-54
2022/10/14 07:24:48;;;;;;;5.05;4.13;;;;;;;18.00;75.43;99755.22;5111548;28;20198;-54
2022/10/14 07:27:16;;;;;;;10.53;4.03;;;;;;;17.68;76.92;99755.19;5111551;28;20198;-54
2022/10/14 07:29:44;;;;;;;6.90;4.10;;;;;;;17.55;77.94;99742.78;5111270;28;20198;-54
2022/10/14 07:32:13;;;;;;;6.50;2.83;;;;;;;17.56;78.43;99747.94;5111373;28;20238;-61
2022/10/14 07:34:41;;;;;;;2.33;2.00;;;;;;;17.65;78.57;99754.50;5111068;28;20191;-61
2022/10/14 07:37:09;;;;;;;4.33;2.17;;;;;;;17.74;78.31;99751.38;5111212;28;20203;-61
2022/10/14 07:39:39;;;;;;;3.80;3.27;;;;;;;17.74;78.03;99748.75;5111008;28;20202;-60
2022/10/14 07:42:08;;;;;;;5.80;4.27;;;;;;;17.65;78.52;99739.59;5111242;28;20218;-60
2022/10/14 07:44:38;;;;;;;18.77;11.53;;;;;;;17.61;78.85;99745.06;5111074;28;20226;-60
2022/10/14 07:47:07;;;;;;;4.47;3.30;;;;;;;17.49;79.40;99748.38;5111111;28;20248;-60
2022/10/14 07:49:35;;;;;;;8.13;3.43;;;;;;;17.41;79.88;99744.38;5110587;28;20201;-60
2022/10/14 07:52:04;;;;;;;6.80;3.40;;;;;;;17.30;80.31;99744.09;5110464;28;20278;-60
2022/10/14 07:54:32;;;;;;;6.60;3.90;;;;;;;17.20;80.84;99731.53;5110966;28;20228;-60
2022/10/14 07:57:02;;;;;;;8.27;5.90;;;;;;;17.27;81.68;99740.75;5110798;28;20186;-54
2022/10/14 07:59:31;;;;;;;4.47;2.40;;;;;;;17.21;81.53;99738.47;5110869;28;20689;-54
2022/10/14 08:01:59;;;;;;;2.80;1.97;;;;;;;17.30;80.53;99741.47;5110285;28;20222;-60
2022/10/14 08:04:28;;;;;;;4.60;4.20;;;;;;;17.28;81.54;99745.09;5110761;28;20241;-60
2022/10/14 08:07:00;;;;;;;4.43;3.70;;;;;;;17.44;80.76;99740.72;5110580;28;20206;-60
2022/10/14 08:09:30;;;;;;;21.43;10.10;;;;;;;17.57;80.02;99741.78;5110626;28;20198;-54
2022/10/14 08:11:58;;;;;;;16.30;9.73;;;;;;;17.78;79.17;99745.91;5110431;28;20198;-55
2022/10/14 08:14:32;;;;;;;11.27;7.37;;;;;;;18.13;77.49;99740.47;5110576;28;20194;-53
2022/10/14 08:17:00;;;;;;;3.42;3.13;;;;;;;18.52;75.23;99745.22;5110055;28;20234;-55
2022/10/14 08:19:31;;;;;;;3.45;2.25;;;;;;;18.73;73.65;99741.41;5110437;28;20290;-54
2022/10/14 08:22:01;;;;;;;5.55;2.10;;;;;;;18.81;72.84;99722.53;5108911;28;20826;-60
2022/10/14 08:24:32;;;;;;;4.95;1.95;;;;;;;18.69;73.02;99732.00;5109534;28;20263;-60
2022/10/14 08:27:01;;;;;;;3.17;2.10;;;;;;;18.88;72.43;99739.63;5110190;28;20201;-60
2022/10/14 08:29:31;;;;;;;4.50;2.00;;;;;;;19.06;71.72;99729.81;5110269;28;20198;-60
2022/10/14 08:31:59;;;;;;;11.02;1.90;;;;;;;19.19;71.21;99721.06;5108985;28;20191;-59
2022/10/14 08:34:27;;;;;;;2.83;1.60;;;;;;;19.15;70.66;99726.63;5109982;28;20198;-59
2022/10/14 08:36:56;;;;;;;1.73;1.63;;;;;;;19.06;71.22;99738.56;5108825;28;20191;-60
2022/10/14 08:39:25;;;;;;;2.10;1.90;;;;;;;19.09;71.47;99732.25;5109028;28;20618;-60
2022/10/14 08:42:15;;;;;;;6.38;2.17;;;;;;;19.09;71.26;99724.34;5106069;28;20222;-60
2022/10/14 08:44:51;;;;;;;2.28;1.90;;;;;;;19.20;70.47;99720.13;5108426;28;20285;-59
2022/10/14 08:47:25;;;;;;;3.83;2.58;;;;;;;19.16;70.53;99729.16;5109676;28;20193;-60
2022/10/14 08:50:02;;;;;;;4.35;2.15;;;;;;;18.76;72.61;99704.38;5109651;28;20194;-60
2022/10/14 08:52:38;;;;;;;1.40;1.30;;;;;;;18.76;72.40;99730.69;5109864;28;20221;-56
2022/10/14 08:55:28;;;;;;;2.28;2.08;;;;;;;18.92;71.62;99730.63;5109812;28;20195;-54
2022/10/14 08:58:00;;;;;;;5.03;2.08;;;;;;;19.06;71.97;99728.03;5109622;28;20241;-54
2022/10/14 09:00:35;;;;;;;1.95;1.80;;;;;;;18.85;71.19;99697.72;5109812;28;20195;-54
2022/10/14 09:03:14;;;;;;;2.00;1.40;;;;;;;19.03;71.14;99728.22;5109522;28;20226;-54
2022/10/14 09:05:45;;;;;;;2.88;1.63;;;;;;;19.18;70.34;99727.28;5109697;28;21014;-53
2022/10/14 09:08:18;;;;;;;7.68;1.88;;;;;;;19.25;69.56;99725.13;5109870;28;20198;-54
2022/10/14 09:10:46;;;;;;;3.05;1.60;;;;;;;19.09;69.58;99712.03;5108956;28;20195;-54
2022/10/14 09:13:24;;;;;;;4.45;2.13;;;;;;;19.17;70.26;99732.66;5109500;28;20194;-54
2022/10/14 09:15:59;;;;;;;1.80;1.70;;;;;;;19.25;69.51;99726.91;5103576;28;20225;-53
2022/10/14 09:18:36;;;;;;;3.65;2.33;;;;;;;19.00;69.82;99730.16;5107917;28;20210;-54
2022/10/14 09:21:21;;;;;;;4.50;1.80;;;;;;;19.06;69.93;99728.03;5108260;28;20228;-54
2022/10/14 09:23:59;;;;;;;5.45;2.05;;;;;;;18.98;70.09;99724.16;5108708;28;20223;-60
2022/10/14 09:26:38;;;;;;;1.80;1.70;;;;;;;19.05;69.26;99717.59;5108723;28;20222;-60
2022/10/14 09:29:17;;;;;;;5.43;1.70;;;;;;;19.05;69.45;99720.22;5108735;28;20279;-61
2022/10/14 09:31:49;;;;;;;6.18;2.40;;;;;;;19.18;69.69;99721.19;5108908;28;20211;-61
2022/10/14 09:34:20;;;;;;;3.22;1.77;;;;;;;19.42;68.57;99721.44;5108189;28;20225;-61
2022/10/14 09:36:51;;;;;;;3.03;1.40;;;;;;;19.28;66.42;99696.00;5108673;28;20218;-60
2022/10/14 09:39:28;;;;;;;5.05;2.08;;;;;;;19.36;68.19;99714.78;5108603;28;20218;-60
2022/10/14 09:41:59;;;;;;;2.25;1.58;;;;;;;19.36;67.02;99714.78;5107983;28;20228;-56
2022/10/14 09:44:28;;;;;;;2.72;1.45;;;;;;;19.39;64.22;99713.75;5108941;28;20206;-54
2022/10/14 09:47:00;;;;;;;3.33;1.50;;;;;;;19.40;63.34;99716.28;5108201;28;20199;-59
2022/10/14 09:49:38;;;;;;;4.38;1.40;;;;;;;19.36;63.46;99706.88;5108131;28;20645;-59
2022/10/14 09:52:07;;;;;;;16.17;3.20;;;;;;;19.35;63.91;99693.81;5109192;28;20202;-60
2022/10/14 09:54:37;;;;;;;1.50;1.40;;;;;;;19.50;63.50;99708.69;5109151;28;20195;-59
2022/10/14 09:57:08;;;;;;;2.92;1.20;;;;;;;19.54;63.38;99704.91;5109172;28;20234;-60
2022/10/14 09:59:50;;;;;;;1.70;1.30;;;;;;;19.58;62.72;99709.91;5110664;28;20191;-60
2022/10/14 10:02:24;;;;;;;2.78;1.70;;;;;;;19.54;63.68;99697.00;5113140;28;20214;-60
2022/10/14 10:04:56;;;;;;;4.40;1.60;;;;;;;19.50;63.01;99704.28;5112329;28;20195;-60
2022/10/14 10:07:32;;;;;;;5.55;1.90;;;;;;;19.55;63.54;99698.72;5112553;28;20252;-59
2022/10/14 10:10:04;;;;;;;6.47;1.75;;;;;;;19.67;62.78;99702.34;5112735;28;20255;-59
2022/10/14 10:12:45;;;;;;;2.80;1.75;;;;;;;19.67;61.75;99702.34;5113071;28;20631;-58
2022/10/14 10:15:20;;;;;;;3.63;1.50;;;;;;;19.63;61.57;99698.25;5112989;28;20234;-59
2022/10/14 10:17:51;;;;;;;3.13;1.55;;;;;;;19.77;61.34;99693.78;5112592;28;20230;-60
2022/10/14 10:20:30;;;;;;;2.95;2.22;;;;;;;19.98;60.70;99696.81;5113126;28;20206;-61
2022/10/14 10:23:24;;;;;;;2.65;2.08;;;;;;;19.99;61.12;99693.25;5112520;28;20275;-60
2022/10/14 10:25:53;;;;;;;6.15;2.70;;;;;;;20.04;61.76;99685.91;5112488;28;20287;-60
2022/10/14 10:28:29;;;;;;;2.00;1.60;;;;;;;19.94;60.37;99690.06;5112008;28;20199;-60
2022/10/14 10:31:06;;;;;;;2.75;1.67;;;;;;;19.78;59.76;99660.38;5101083;28;20590;-61
2022/10/14 10:33:49;;;;;;;13.20;2.72;;;;;;;19.81;60.63;99676.84;5112576;28;20186;-61
2022/10/14 10:36:47;;;;;;;6.50;2.80;;;;;;;20.01;60.12;99670.28;5111571;28;20190;-59
2022/10/14 10:39:23;;;;;;;8.18;1.95;;;;;;;20.11;60.09;99659.97;5108970;28;20194;-60
2022/10/14 10:42:02;;;;;;;4.85;2.10;;;;;;;20.43;58.72;99671.91;5108209;28;20264;-54
2022/10/14 10:44:52;;;;;;;171.60;77.97;;;;;;;20.42;58.30;99664.13;5108314;28;20202;-60
2022/10/14 10:47:31;;;;;;;23.90;15.40;;;;;;;20.56;57.89;99656.94;5109724;28;20199;-59
2022/10/14 10:53:07;;;;;;;85.25;7.82;;;;;;;20.42;56.24;99661.50;5106873;27;20550;-55
2022/10/14 10:55:39;;;;;;;3.20;1.60;;;;;;;20.43;55.79;99655.28;5107012;28;20702;-55
2022/10/14 10:58:26;;;;;;;4.57;1.83;;;;;;;20.34;55.19;99659.31;5106919;28;20587;-55
2022/10/14 11:01:00;;;;;;;1.50;1.40;;;;;;;20.24;56.05;99656.44;5106672;28;20191;-54
2022/10/14 11:03:44;;;;;;;5.50;2.58;;;;;;;20.12;55.81;99651.13;5106733;28;20276;-55
2022/10/14 11:12:01;;;;;;;7.15;2.10;;;;;;;20.17;55.94;99644.63;5106706;28;20198;-60
2022/10/14 11:12:12;;;;;;;8.02;2.05;;;;;;;20.13;56.37;99637.84;5105941;28;20233;-60
2022/10/14 11:14:56;;;;;;;5.47;2.13;;;;;;;20.17;56.26;99628.81;5106475;28;20191;-60
2022/10/14 11:17:31;;;;;;;1.60;1.50;;;;;;;20.38;55.77;99631.84;5106637;28;20252;-60
2022/10/14 11:20:07;;;;;;;7.22;2.63;;;;;;;20.47;55.93;99622.47;5106206;28;20285;-60
2022/10/14 11:22:51;;;;;;;4.80;4.00;;;;;;;20.44;55.08;99609.47;5106499;28;20201;-59
2022/10/14 11:25:26;;;;;;;2.85;2.40;;;;;;;20.57;54.24;99623.50;5107011;28;20220;-54
2022/10/14 11:28:00;;;;;;;2.70;2.60;;;;;;;20.47;54.18;99611.91;5106290;28;20202;-55
2022/10/14 11:30:37;;;;;;;5.75;2.92;;;;;;;20.35;54.33;99588.97;5106328;28;20279;-54
2022/10/14 11:33:20;;;;;;;17.95;10.95;;;;;;;20.42;54.47;99609.59;5106369;28;20198;-54
2022/10/14 11:35:54;;;;;;;2.13;1.95;;;;;;;20.11;54.59;99605.50;5106281;28;20218;-54
2022/10/14 11:38:40;;;;;;;4.88;2.10;;;;;;;20.24;55.04;99597.59;5106339;28;20204;-60
2022/10/14 11:41:17;;;;;;;5.72;1.90;;;;;;;19.92;55.27;99591.84;5105847;28;20195;-61
2022/10/14 11:43:54;;;;;;;5.95;3.00;;;;;;;19.77;56.44;99587.56;5106191;28;20198;-60
2022/10/14 11:46:22;;;;;;;6.28;5.88;;;;;;;19.94;56.11;99579.44;5106247;28;20194;-60
2022/10/14 11:48:55;;;;;;;10.15;7.43;;;;;;;20.08;55.98;99578.50;5106118;28;20232;-61
2022/10/14 11:51:26;;;;;;;5.40;3.92;;;;;;;20.06;54.51;99560.16;5105741;28;20235;-60